createdAt,value
2023-11-11T00:02:26.759Z,2.40
2023-11-11T00:04:54.167Z,1.64
2023-11-11T00:07:30.342Z,1.48
2023-11-11T00:09:58.681Z,1.57
2023-11-11T00:12:26.064Z,2.12
2023-11-11T00:14:54.132Z,2.04
2023-11-11T00:17:21.395Z,1.87
2023-11-11T00:19:48.985Z,1.53
2023-11-11T00:22:16.333Z,1.50
2023-11-11T00:24:44.105Z,1.53
2023-11-11T00:27:13.518Z,1.55
2023-11-11T00:29:42.459Z,1.58
2023-11-11T00:32:09.908Z,1.44
2023-11-11T00:34:39.127Z,1.07
2023-11-11T00:37:06.555Z,1.39
2023-11-11T00:39:35.228Z,0.99
2023-11-11T00:42:02.834Z,1.21
2023-11-11T00:44:30.179Z,0.93
2023-11-11T00:46:57.471Z,1.02
2023-11-11T00:49:24.778Z,1.06
2023-11-11T00:51:53.744Z,0.86
2023-11-11T00:54:20.998Z,1.23
2023-11-11T00:56:48.314Z,0.91
2023-11-11T00:59:15.644Z,0.88
2023-11-11T01:01:43.080Z,0.80
2023-11-11T01:04:10.578Z,1.53
2023-11-11T01:06:38.380Z,1.08
2023-11-11T01:09:33.020Z,0.67
2023-11-11T01:12:03.769Z,0.67
2023-11-11T01:14:32.387Z,0.73
2023-11-11T01:16:59.780Z,1.02
2023-11-11T01:19:27.250Z,0.39
2023-11-11T01:21:54.582Z,0.32
2023-11-11T01:24:21.892Z,0.47
2023-11-11T01:26:49.306Z,0.13
2023-11-11T01:29:16.827Z,-0.03
2023-11-11T01:31:44.115Z,0.09
2023-11-11T01:34:12.151Z,0.12
2023-11-11T01:36:39.578Z,0.70
2023-11-11T01:39:08.247Z,0.16
2023-11-11T01:41:35.578Z,0.22
2023-11-11T01:44:02.892Z,-0.61
2023-11-11T01:46:30.668Z,0.67
2023-11-11T01:48:58.063Z,-0.39
2023-11-11T01:51:25.393Z,0.21
2023-11-11T01:53:52.710Z,-0.19
2023-11-11T01:56:20.364Z,-0.20
2023-11-11T01:58:47.646Z,0.23
2023-11-11T02:01:15.021Z,-0.23
2023-11-11T02:03:43.202Z,-0.25
2023-11-11T02:06:11.342Z,-0.33
2023-11-11T02:08:38.935Z,-0.30
2023-11-11T02:11:10.089Z,-0.36
2023-11-11T02:13:37.629Z,-0.30
2023-11-11T02:16:08.255Z,-0.03
2023-11-11T02:18:35.748Z,-0.19
2023-11-11T02:21:03.297Z,-0.36
2023-11-11T02:23:40.361Z,-0.24
2023-11-11T02:26:07.620Z,-0.38
2023-11-11T02:28:35.417Z,-0.46
2023-11-11T02:31:02.855Z,-0.30
2023-11-11T02:33:30.225Z,-0.39
2023-11-11T02:35:58.081Z,-0.52
2023-11-11T02:38:25.349Z,-0.14
2023-11-11T02:40:52.655Z,-0.45
2023-11-11T02:43:20.086Z,0.14
2023-11-11T02:45:47.958Z,-0.14
2023-11-11T02:48:15.384Z,-0.15
2023-11-11T02:50:42.755Z,0.03
2023-11-11T02:53:10.413Z,-0.32
2023-11-11T02:55:37.768Z,-0.01
2023-11-11T02:58:05.068Z,-0.34
2023-11-11T03:00:32.979Z,0.06
2023-11-11T03:03:01.168Z,0.06
2023-11-11T03:05:28.541Z,-0.04
2023-11-11T03:07:55.770Z,-0.05
2023-11-11T03:10:23.285Z,0.31
2023-11-11T03:12:50.621Z,0.24
2023-11-11T03:15:18.346Z,-0.09
2023-11-11T03:17:47.050Z,0.16
2023-11-11T03:20:14.349Z,-0.22
2023-11-11T03:22:41.684Z,0.09
2023-11-11T03:25:10.100Z,-0.34
2023-11-11T03:27:38.221Z,-0.15
2023-11-11T03:30:08.087Z,0.01
2023-11-11T03:32:35.490Z,-0.01
2023-11-11T03:35:02.823Z,0.19
2023-11-11T03:37:30.182Z,0.16
2023-11-11T03:39:57.527Z,0.54
2023-11-11T03:42:24.855Z,0.39
2023-11-11T03:44:52.220Z,-0.04
2023-11-11T03:47:19.537Z,0.33
2023-11-11T03:49:47.113Z,0.11
2023-11-11T03:52:14.425Z,-0.14
2023-11-11T03:54:41.729Z,-0.01
2023-11-11T03:57:09.089Z,-0.10
2023-11-11T03:59:36.820Z,-0.07
2023-11-11T04:02:04.066Z,0.13
2023-11-11T04:04:40.844Z,0.03
2023-11-11T04:07:09.119Z,0.83
2023-11-11T04:09:36.823Z,0.12
2023-11-11T04:12:04.238Z,0.48
2023-11-11T04:14:33.347Z,0.55
2023-11-11T04:17:00.641Z,0.68
2023-11-11T04:19:28.014Z,0.50
2023-11-11T04:21:56.278Z,0.31
2023-11-11T04:24:23.741Z,-0.14
2023-11-11T04:26:51.263Z,1.22
2023-11-11T04:29:18.628Z,0.36
2023-11-11T04:31:45.891Z,1.13
2023-11-11T04:34:13.293Z,0.81
2023-11-11T04:36:40.670Z,0.76
2023-11-11T04:39:10.517Z,1.14
2023-11-11T04:41:37.827Z,0.94
2023-11-11T04:44:05.161Z,0.99
2023-11-11T04:46:33.120Z,1.66
2023-11-11T04:49:00.524Z,0.89
2023-11-11T04:51:28.034Z,1.02
2023-11-11T04:53:55.282Z,0.92
2023-11-11T04:56:22.658Z,1.19
2023-11-11T04:58:50.009Z,0.83
2023-11-11T05:01:17.575Z,1.39
2023-11-11T05:03:47.798Z,0.56
2023-11-11T05:06:15.757Z,1.49
2023-11-11T05:08:43.124Z,0.88
2023-11-11T05:11:10.531Z,1.33
2023-11-11T05:13:52.642Z,1.52
2023-11-11T05:16:41.267Z,0.87
2023-11-11T05:19:09.783Z,1.62
2023-11-11T05:21:38.498Z,0.96
2023-11-11T05:24:07.137Z,1.03
2023-11-11T05:26:34.556Z,0.66
2023-11-11T05:29:02.769Z,1.40
2023-11-11T05:31:33.009Z,1.30
2023-11-11T05:34:00.641Z,1.12
2023-11-11T05:36:29.043Z,0.98
2023-11-11T05:38:56.516Z,0.50
2023-11-11T05:41:28.648Z,0.53
2023-11-11T05:43:56.197Z,0.83
2023-11-11T05:46:25.659Z,0.81
2023-11-11T05:48:53.100Z,1.11
2023-11-11T05:51:20.568Z,1.52
2023-11-11T05:53:51.074Z,1.01
2023-11-11T05:56:18.699Z,1.10
2023-11-11T05:58:45.989Z,1.20
2023-11-11T06:01:13.330Z,1.47
2023-11-11T06:03:40.852Z,1.06
2023-11-11T06:06:08.257Z,1.12
2023-11-11T06:08:35.631Z,1.06
2023-11-11T06:11:03.818Z,1.09
2023-11-11T06:13:31.223Z,0.84
2023-11-11T06:15:58.519Z,1.22
2023-11-11T06:18:28.923Z,0.93
2023-11-11T06:20:56.255Z,1.45
2023-11-11T06:25:53.897Z,1.65
2023-11-11T06:28:21.013Z,1.01
2023-11-11T06:30:48.282Z,1.43
2023-11-11T06:33:16.401Z,1.13
2023-11-11T06:35:43.840Z,1.32
2023-11-11T06:38:12.770Z,1.65
2023-11-11T06:40:40.143Z,1.29
2023-11-11T06:43:08.881Z,1.73
2023-11-11T06:45:36.418Z,1.69
2023-11-11T06:48:03.807Z,2.30
2023-11-11T06:50:31.654Z,1.44
2023-11-11T06:52:59.041Z,1.95
2023-11-11T06:55:29.313Z,1.46
2023-11-11T06:57:56.619Z,1.06
2023-11-11T07:00:24.247Z,1.46
2023-11-11T07:02:56.612Z,1.41
2023-11-11T07:05:24.100Z,1.52
2023-11-11T07:07:51.331Z,1.33
2023-11-11T07:10:18.735Z,1.55
2023-11-11T07:12:46.586Z,1.82
2023-11-11T07:15:13.995Z,1.05
2023-11-11T07:18:07.810Z,2.19
2023-11-11T07:20:41.523Z,1.36
2023-11-11T07:23:08.805Z,1.31
2023-11-11T07:25:36.788Z,1.13
2023-11-11T07:28:05.824Z,1.84
2023-11-11T07:30:33.756Z,1.71
2023-11-11T07:33:02.532Z,1.97
2023-11-11T07:35:30.616Z,1.05
2023-11-11T07:37:58.298Z,1.69
2023-11-11T07:40:27.080Z,1.24
2023-11-11T07:42:54.697Z,1.33
2023-11-11T07:45:25.200Z,1.62
2023-11-11T07:47:53.552Z,1.18
2023-11-11T07:50:22.210Z,1.78
2023-11-11T07:52:50.212Z,1.50
2023-11-11T07:55:17.346Z,1.08
2023-11-11T08:00:20.345Z,2.18
2023-11-11T08:02:49.665Z,1.84
2023-11-11T08:05:17.682Z,1.27
2023-11-11T08:07:45.189Z,1.93
2023-11-11T08:10:12.603Z,2.31
2023-11-11T08:12:40.177Z,1.52
2023-11-11T08:15:08.146Z,1.93
2023-11-11T08:17:35.690Z,1.69
2023-11-11T08:20:13.203Z,1.31
2023-11-11T08:22:43.913Z,1.81
2023-11-11T08:25:15.380Z,1.59
2023-11-11T08:27:46.411Z,0.96
2023-11-11T08:30:13.916Z,1.30
2023-11-11T08:32:41.435Z,1.52
2023-11-11T08:35:09.993Z,0.89
2023-11-11T08:37:37.364Z,1.44
2023-11-11T08:40:07.924Z,1.37
2023-11-11T08:42:35.446Z,1.07
2023-11-11T08:45:03.467Z,0.99
2023-11-11T08:47:30.774Z,0.89
2023-11-11T08:49:58.367Z,1.28
2023-11-11T08:52:25.595Z,1.46
2023-11-11T08:54:53.235Z,0.91
2023-11-11T08:57:21.501Z,1.54
2023-11-11T08:59:48.730Z,0.58
2023-11-11T09:02:16.060Z,0.83
2023-11-11T09:04:43.405Z,0.75
2023-11-11T09:07:10.950Z,0.46
2023-11-11T09:09:38.254Z,0.81
2023-11-11T09:12:09.001Z,0.81
2023-11-11T09:14:36.382Z,0.92
2023-11-11T09:17:05.003Z,1.28
2023-11-11T09:19:32.856Z,1.32
2023-11-11T09:22:00.207Z,1.45
2023-11-11T09:24:28.380Z,0.98
2023-11-11T09:29:25.998Z,1.35
2023-11-11T09:31:53.604Z,1.50
2023-11-11T09:34:21.035Z,1.19
2023-11-11T09:36:48.585Z,1.59
2023-11-11T09:39:16.101Z,1.26
2023-11-11T09:41:43.428Z,1.98
2023-11-11T09:46:55.091Z,2.13
2023-11-11T09:49:23.207Z,2.00
2023-11-11T09:51:51.298Z,2.27
2023-11-11T09:54:18.737Z,1.71
2023-11-11T09:59:18.040Z,1.40
2023-11-11T10:01:50.131Z,1.22
2023-11-11T10:04:17.637Z,1.83
2023-11-11T10:06:45.807Z,1.80
2023-11-11T10:09:19.067Z,1.06
2023-11-11T10:11:47.518Z,2.03
2023-11-11T10:14:18.135Z,1.74
2023-11-11T10:16:45.805Z,1.67
2023-11-11T10:19:14.227Z,1.81
2023-11-11T10:21:42.239Z,2.76
2023-11-11T10:24:10.861Z,2.87
2023-11-11T10:26:42.707Z,2.63
2023-11-11T10:29:10.973Z,1.74
2023-11-11T10:31:38.928Z,3.09
2023-11-11T10:34:06.607Z,2.41
2023-11-11T10:36:46.634Z,3.10
2023-11-11T10:39:14.272Z,2.37
2023-11-11T10:41:42.512Z,2.70
2023-11-11T10:44:10.368Z,3.03
2023-11-11T10:46:38.706Z,2.60
2023-11-11T10:49:06.611Z,3.14
2023-11-11T10:51:36.103Z,2.28
2023-11-11T10:54:07.228Z,2.20
2023-11-11T10:56:35.028Z,3.37
2023-11-11T10:59:10.248Z,3.41
2023-11-11T11:01:38.158Z,2.03
2023-11-11T11:04:07.380Z,3.06
2023-11-11T11:06:47.267Z,3.68
2023-11-11T11:09:24.329Z,3.68
2023-11-11T11:12:19.704Z,3.65
2023-11-11T11:14:48.944Z,2.54
2023-11-11T11:17:16.888Z,3.12
2023-11-11T11:20:26.377Z,2.56
2023-11-11T11:23:01.724Z,2.78
2023-11-11T11:25:35.880Z,2.74
2023-11-11T11:28:12.838Z,3.92
2023-11-11T11:30:52.226Z,3.26
2023-11-11T11:33:22.633Z,3.74
2023-11-11T11:35:58.214Z,2.83
2023-11-11T11:38:27.321Z,3.91
2023-11-11T11:41:03.321Z,2.92
2023-11-11T11:43:36.204Z,3.61
2023-11-11T11:46:05.855Z,3.39
2023-11-11T11:48:41.443Z,3.00
2023-11-11T11:51:14.204Z,3.12
2023-11-11T11:53:46.909Z,3.08
2023-11-11T11:56:34.372Z,2.62
2023-11-11T11:59:04.815Z,2.93
2023-11-11T12:01:36.293Z,2.44
2023-11-11T12:04:05.471Z,3.34
2023-11-11T12:06:38.641Z,3.04
2023-11-11T12:09:09.455Z,3.67
2023-11-11T12:11:37.285Z,2.87
2023-11-11T12:14:08.933Z,3.69
2023-11-11T12:16:43.088Z,3.62
2023-11-11T12:19:12.075Z,3.29
2023-11-11T12:21:44.990Z,3.40
2023-11-11T12:24:17.827Z,2.07
2023-11-11T12:26:49.983Z,2.10
2023-11-11T12:29:17.765Z,2.43
2023-11-11T12:31:47.123Z,1.68
2023-11-11T12:34:16.830Z,2.06
2023-11-11T12:36:44.771Z,2.79
2023-11-11T12:39:13.613Z,3.12
2023-11-11T12:41:41.210Z,2.82
2023-11-11T12:44:09.784Z,3.29
2023-11-11T12:46:41.529Z,3.08
2023-11-11T12:49:09.445Z,3.48
2023-11-11T12:51:38.902Z,2.78
2023-11-11T12:54:07.885Z,3.46
2023-11-11T12:56:35.239Z,2.74
2023-11-11T12:59:13.248Z,2.80
2023-11-11T13:01:41.068Z,3.03
2023-11-11T13:04:10.803Z,2.45
2023-11-11T13:06:38.150Z,2.54
2023-11-11T13:09:12.046Z,2.62
2023-11-11T13:11:39.420Z,2.38
2023-11-11T13:14:07.829Z,3.33
2023-11-11T13:16:36.178Z,2.76
2023-11-11T13:19:03.768Z,3.20
2023-11-11T13:21:34.143Z,3.54
2023-11-11T13:24:01.491Z,3.04
2023-11-11T13:26:31.441Z,2.90
2023-11-11T13:29:01.541Z,2.16
2023-11-11T13:31:29.648Z,3.44
2023-11-11T13:34:12.627Z,4.37
2023-11-11T13:36:41.912Z,5.03
2023-11-11T13:39:23.795Z,4.51
2023-11-11T13:41:51.153Z,5.68
2023-11-11T13:44:18.455Z,5.33
2023-11-11T13:46:45.872Z,5.47
2023-11-11T13:49:14.130Z,5.71
2023-11-11T13:51:42.803Z,5.15
2023-11-11T13:54:10.073Z,5.05
2023-11-11T13:56:38.385Z,4.56
2023-11-11T13:59:05.788Z,5.13
2023-11-11T14:01:33.289Z,4.52
2023-11-11T14:04:02.066Z,3.65
2023-11-11T14:06:34.196Z,3.78
2023-11-11T14:09:01.754Z,5.49
2023-11-11T14:11:29.425Z,4.59
2023-11-11T14:13:56.853Z,4.66
2023-11-11T14:16:26.039Z,4.19
2023-11-11T14:18:53.466Z,5.53
2023-11-11T14:21:21.163Z,5.43
2023-11-11T14:23:48.512Z,6.03
2023-11-11T14:26:15.969Z,5.42
2023-11-11T14:28:43.481Z,5.05
2023-11-11T14:31:10.818Z,5.03
2023-11-11T14:33:39.067Z,3.98
2023-11-11T14:36:06.750Z,3.45
2023-11-11T14:38:55.774Z,3.88
2023-11-11T14:42:00.281Z,2.91
2023-11-11T14:44:58.335Z,2.70
2023-11-11T14:48:07.636Z,2.88
2023-11-11T14:51:04.102Z,2.31
2023-11-11T14:54:04.213Z,2.44
2023-11-11T14:57:08.382Z,3.16
2023-11-11T14:59:41.014Z,1.83
2023-11-11T15:02:08.489Z,1.41
2023-11-11T15:04:36.264Z,2.17
2023-11-11T15:07:05.716Z,2.22
2023-11-11T15:09:33.064Z,2.48
2023-11-11T15:12:00.384Z,1.32
2023-11-11T15:14:27.840Z,2.32
2023-11-11T15:16:55.428Z,2.01
2023-11-11T15:19:22.998Z,1.66
2023-11-11T15:21:51.552Z,2.15
2023-11-11T15:24:19.390Z,1.88
2023-11-11T15:26:46.698Z,1.63
2023-11-11T15:29:14.024Z,1.23
2023-11-11T15:31:41.429Z,1.47
2023-11-11T15:34:08.866Z,1.34
2023-11-11T15:36:37.889Z,1.57
2023-11-11T15:39:13.989Z,1.80
2023-11-11T15:41:41.431Z,1.59
2023-11-11T15:44:09.535Z,2.36
2023-11-11T15:46:37.168Z,1.68
2023-11-11T15:49:04.676Z,1.63
2023-11-11T15:51:32.416Z,1.54
2023-11-11T15:54:00.339Z,1.46
2023-11-11T15:56:28.888Z,1.58
2023-11-11T15:58:56.309Z,1.78
2023-11-11T16:01:34.201Z,1.44
2023-11-11T16:04:17.872Z,1.54
2023-11-11T16:06:45.410Z,1.65
2023-11-11T16:09:18.742Z,1.42
2023-11-11T16:11:46.745Z,1.05
2023-11-11T16:14:13.969Z,1.54
2023-11-11T16:16:41.428Z,1.16
2023-11-11T16:19:08.875Z,1.32
2023-11-11T16:21:36.510Z,1.26
2023-11-11T16:24:20.213Z,0.99
2023-11-11T16:26:54.056Z,1.46
2023-11-11T16:29:21.579Z,1.12
2023-11-11T16:31:49.042Z,0.97
2023-11-11T16:34:20.766Z,1.29
2023-11-11T16:36:48.224Z,1.05
2023-11-11T16:39:17.529Z,0.88
2023-11-11T16:41:52.211Z,0.83
2023-11-11T16:44:21.696Z,0.71
2023-11-11T16:46:48.930Z,1.21
2023-11-11T16:49:16.467Z,0.79
2023-11-11T16:51:43.697Z,0.42
2023-11-11T16:54:10.963Z,0.68
2023-11-11T16:56:38.071Z,0.71
2023-11-11T16:59:09.546Z,0.84
2023-11-11T17:01:41.264Z,0.67
2023-11-11T17:04:11.112Z,0.63
2023-11-11T17:06:38.697Z,0.53
2023-11-11T17:09:12.840Z,0.80
2023-11-11T17:11:46.639Z,0.80
2023-11-11T17:14:14.830Z,0.59
2023-11-11T17:16:43.175Z,1.38
2023-11-11T17:19:10.974Z,0.95
2023-11-11T17:21:38.604Z,0.69
2023-11-11T17:24:08.079Z,1.00
2023-11-11T17:26:35.283Z,0.70
2023-11-11T17:29:02.600Z,0.50
2023-11-11T17:31:31.355Z,0.79
2023-11-11T17:33:58.867Z,0.96
2023-11-11T17:36:32.868Z,1.32
2023-11-11T17:39:00.148Z,1.06
2023-11-11T17:41:27.985Z,0.27
2023-11-11T17:43:55.290Z,0.43
2023-11-11T17:46:24.477Z,0.12
2023-11-11T17:48:52.017Z,-0.13
2023-11-11T17:51:20.794Z,0.71
2023-11-11T17:53:48.671Z,0.46
2023-11-11T17:56:27.283Z,-0.14
2023-11-11T17:58:54.975Z,0.22
2023-11-11T18:01:22.802Z,0.26
2023-11-11T18:03:50.223Z,-0.03
2023-11-11T18:06:17.627Z,0.19
2023-11-11T18:08:47.249Z,0.34
2023-11-11T18:11:15.140Z,0.08
2023-11-11T18:13:43.032Z,0.46
2023-11-11T18:16:18.372Z,0.90
2023-11-11T18:18:45.925Z,0.67
2023-11-11T18:21:17.246Z,0.36
2023-11-11T18:23:45.343Z,0.29
2023-11-11T18:26:13.926Z,0.98
2023-11-11T18:28:41.434Z,0.91
2023-11-11T18:31:09.888Z,0.96
2023-11-11T18:33:37.359Z,0.78
2023-11-11T18:36:05.449Z,1.00
2023-11-11T18:38:36.841Z,0.59
2023-11-11T18:41:08.544Z,0.44
2023-11-11T18:43:36.101Z,0.86
2023-11-11T18:46:04.329Z,1.11
2023-11-11T18:48:32.101Z,0.18
2023-11-11T18:50:59.897Z,0.11
2023-11-11T18:53:28.810Z,0.35
2023-11-11T18:55:57.484Z,1.10
2023-11-11T18:58:25.621Z,0.42
2023-11-11T19:00:53.342Z,0.16
2023-11-11T19:03:20.870Z,0.35
2023-11-11T19:06:07.855Z,0.28
2023-11-11T19:08:36.212Z,0.41
2023-11-11T19:13:33.267Z,0.02
2023-11-11T19:16:00.914Z,0.71
2023-11-11T19:18:28.325Z,0.48
2023-11-11T19:20:56.602Z,0.22
2023-11-11T19:23:24.100Z,0.38
2023-11-11T19:25:51.662Z,0.32
2023-11-11T19:28:19.097Z,0.37
2023-11-11T19:30:47.200Z,0.02
2023-11-11T19:33:14.526Z,0.07
2023-11-11T19:35:42.852Z,0.19
2023-11-11T19:38:10.284Z,-0.13
2023-11-11T19:40:37.709Z,0.04
2023-11-11T19:43:05.046Z,-0.23
2023-11-11T19:45:32.597Z,-0.26
2023-11-11T19:47:59.839Z,-0.10
2023-11-11T19:50:27.274Z,0.65
2023-11-11T19:52:54.596Z,0.04
2023-11-11T19:55:23.727Z,0.54
2023-11-11T19:57:51.203Z,0.10
2023-11-11T20:00:19.742Z,0.47
2023-11-11T20:02:47.668Z,0.51
2023-11-11T20:05:15.047Z,-0.18
2023-11-11T20:07:43.141Z,0.17
2023-11-11T20:10:10.962Z,0.20
2023-11-11T20:12:38.429Z,-0.47
2023-11-11T20:15:13.261Z,0.05
2023-11-11T20:17:41.783Z,0.65
2023-11-11T20:20:09.739Z,-0.53
2023-11-11T20:22:37.334Z,0.58
2023-11-11T20:25:05.158Z,-0.45
2023-11-11T20:27:37.237Z,0.03
2023-11-11T20:30:05.243Z,0.21
2023-11-11T20:32:34.615Z,0.15
2023-11-11T20:35:02.152Z,0.44
2023-11-11T20:37:30.125Z,1.01
2023-11-11T20:39:57.392Z,0.58
2023-11-11T20:42:25.954Z,0.23
2023-11-11T20:44:53.323Z,-0.09
2023-11-11T20:47:22.253Z,0.20
2023-11-11T20:49:52.789Z,0.10
2023-11-11T20:52:20.367Z,0.42
2023-11-11T20:54:47.908Z,0.96
2023-11-11T20:57:15.237Z,0.14
2023-11-11T20:59:42.596Z,0.09
2023-11-11T21:02:10.051Z,0.45
2023-11-11T21:04:37.648Z,0.22
2023-11-11T21:07:05.264Z,0.36
2023-11-11T21:09:32.767Z,0.12
2023-11-11T21:12:00.237Z,-0.02
2023-11-11T21:14:27.678Z,-0.16
2023-11-11T21:16:56.696Z,0.09
2023-11-11T21:19:24.705Z,0.06
2023-11-11T21:21:52.149Z,-0.22
2023-11-11T21:24:19.879Z,0.14
2023-11-11T21:26:49.399Z,0.34
2023-11-11T21:29:17.195Z,-0.15
2023-11-11T21:31:44.979Z,0.07
2023-11-11T21:34:12.647Z,0.07
2023-11-11T21:36:40.147Z,-0.18
2023-11-11T21:39:14.360Z,0.25
2023-11-11T21:41:42.125Z,0.38
2023-11-11T21:44:10.309Z,1.00
2023-11-11T21:46:38.565Z,0.63
2023-11-11T21:49:07.349Z,0.61
2023-11-11T21:51:35.505Z,0.39
2023-11-11T21:54:02.774Z,0.54
2023-11-11T21:56:30.373Z,0.32
2023-11-11T21:58:57.915Z,0.85
2023-11-11T22:01:25.481Z,0.51
2023-11-11T22:03:53.090Z,0.20
2023-11-11T22:06:20.622Z,0.33
2023-11-11T22:08:48.076Z,0.45
2023-11-11T22:11:15.550Z,0.48
2023-11-11T22:13:43.127Z,0.75
2023-11-11T22:16:10.693Z,0.43
2023-11-11T22:18:38.636Z,0.70
2023-11-11T22:21:06.647Z,1.13
2023-11-11T22:23:34.017Z,0.39
2023-11-11T22:26:01.495Z,0.42
2023-11-11T22:28:28.841Z,0.27
2023-11-11T22:30:56.633Z,0.53
2023-11-11T22:33:24.011Z,0.36
2023-11-11T22:35:51.319Z,0.71
2023-11-11T22:38:18.768Z,0.76
2023-11-11T22:40:48.566Z,0.46
2023-11-11T22:43:16.329Z,0.51
2023-11-11T22:45:44.031Z,0.32
2023-11-11T22:48:11.417Z,0.27
2023-11-11T22:50:38.774Z,0.05
2023-11-11T22:53:07.168Z,0.42
2023-11-11T22:55:36.020Z,0.28
2023-11-11T22:58:03.480Z,-0.01
2023-11-11T23:00:33.549Z,0.20
2023-11-11T23:03:12.546Z,0.31
2023-11-11T23:05:43.885Z,0.19
2023-11-11T23:08:11.991Z,-0.10
2023-11-11T23:10:53.827Z,0.24
2023-11-11T23:13:22.476Z,-0.24
2023-11-11T23:15:50.893Z,-0.03
2023-11-11T23:18:18.358Z,-0.15
2023-11-11T23:20:45.969Z,0.05
2023-11-11T23:23:14.915Z,0.32
2023-11-11T23:25:45.455Z,0.10
2023-11-11T23:28:12.950Z,0.29
2023-11-11T23:30:42.130Z,-0.66
2023-11-11T23:33:12.509Z,-0.08
2023-11-11T23:35:40.650Z,0.01
2023-11-11T23:38:09.128Z,0.03
2023-11-11T23:40:36.595Z,0.15
2023-11-11T23:43:04.639Z,0.25
2023-11-11T23:45:33.990Z,0.03
2023-11-11T23:48:02.122Z,-0.03
2023-11-11T23:50:29.488Z,0.16
2023-11-11T23:52:56.879Z,-0.15
2023-11-11T23:55:24.829Z,-0.41
2023-11-11T23:57:52.626Z,-0.24
